Time;durP1;ratioP1;P1;durP2;ratioP2;P2;SDS_P1;SDS_P2;PMS_P1;PMS_P2;Temp;Humidity;BMP_temperature;BMP_pressure;BME280_temperature;BME280_humidity;BME280_pressure;Samples;Min_cycle;Max_cycle;Signal;HPM_P1;HPM_P2
2022/04/23 00:00:50;;;;;;;14.57;10.07;;;;;;;;;;5105820;28;20012;-87
2022/04/23 00:03:15;;;;;;;15.32;9.30;;;;;;;;;;5104995;28;20028;-86
2022/04/23 00:05:41;;;;;;;14.60;9.65;;;;;;;;;;5104477;28;20065;-84
2022/04/23 00:08:06;;;;;;;12.07;8.68;;;;;;;;;;5104364;28;20028;-87
2022/04/23 00:10:32;;;;;;;12.57;8.90;;;;;;;;;;5106735;28;20039;-87
2022/04/23 00:12:57;;;;;;;13.32;9.23;;;;;;;;;;5103280;28;20016;-89
2022/04/23 00:15:25;;;;;;;14.38;9.40;;;;;;;;;;5101093;28;20020;-84
2022/04/23 00:17:50;;;;;;;16.02;10.65;;;;;;;;;;5103415;28;20020;-85
2022/04/23 00:20:16;;;;;;;14.88;9.98;;;;;;;;;;5102813;28;20027;-84
2022/04/23 00:22:42;;;;;;;15.35;10.25;;;;;;;;;;5102578;28;20034;-88
2022/04/23 00:25:08;;;;;;;14.13;9.50;;;;;;;;;;5103308;28;20024;-84
2022/04/23 00:27:33;;;;;;;16.63;8.48;;;;;;;;;;5103928;28;20035;-80
2022/04/23 00:29:58;;;;;;;16.23;8.55;;;;;;;;;;5103165;28;20477;-83
2022/04/23 00:32:24;;;;;;;13.52;9.30;;;;;;;;;;5104225;28;20012;-85
2022/04/23 00:34:49;;;;;;;17.65;10.68;;;;;;;;;;5102834;28;20063;-85
2022/04/23 00:37:14;;;;;;;15.33;9.37;;;;;;;;;;5101842;28;20024;-87
2022/04/23 00:39:39;;;;;;;16.23;10.07;;;;;;;;;;5105341;28;20322;-82
2022/04/23 00:42:08;;;;;;;14.15;9.32;;;;;;;;;;5104259;28;20024;-82
2022/04/23 00:44:34;;;;;;;14.52;10.10;;;;;;;;;;5101647;28;20785;-88
2022/04/23 00:47:00;;;;;;;16.48;9.70;;;;;;;;;;5102221;28;20023;-81
2022/04/23 00:49:25;;;;;;;17.00;10.90;;;;;;;;;;5102110;28;20024;-85
2022/04/23 00:51:51;;;;;;;15.03;9.50;;;;;;;;;;5102254;28;20016;-86
2022/04/23 00:54:17;;;;;;;16.27;10.45;;;;;;;;;;5102663;28;20371;-83
2022/04/23 00:56:42;;;;;;;16.33;10.68;;;;;;;;;;5102679;28;20074;-88
2022/04/23 00:59:10;;;;;;;15.43;10.27;;;;;;;;;;5103805;28;20028;-84
2022/04/23 01:01:36;;;;;;;19.10;11.20;;;;;;;;;;5104720;28;20114;-84
2022/04/23 01:04:02;;;;;;;16.38;10.65;;;;;;;;;;5101754;28;20044;-80
2022/04/23 01:06:28;;;;;;;16.05;10.38;;;;;;;;;;5101211;28;20027;-86
2022/04/23 01:08:53;;;;;;;15.60;10.68;;;;;;;;;;5103443;28;20020;-87
2022/04/23 01:11:19;;;;;;;15.13;9.63;;;;;;;;;;5101709;28;20020;-85
2022/04/23 01:13:45;;;;;;;14.10;9.68;;;;;;;;;;5103071;28;20342;-78
2022/04/23 01:16:10;;;;;;;18.15;10.38;;;;;;;;;;5104243;28;20023;-87
2022/04/23 01:18:39;;;;;;;14.43;10.23;;;;;;;;;;5111366;28;20016;-85
2022/04/23 01:21:05;;;;;;;16.33;9.30;;;;;;;;;;5111475;28;20111;-83
2022/04/23 01:23:31;;;;;;;17.08;10.45;;;;;;;;;;5112009;28;20019;-85
2022/04/23 01:25:56;;;;;;;18.23;11.38;;;;;;;;;;5112131;28;20075;-87
2022/04/23 01:28:22;;;;;;;18.35;11.23;;;;;;;;;;5111599;28;20044;-81
2022/04/23 01:30:51;;;;;;;18.65;10.95;;;;;;;;;;5111659;28;20477;-84
2022/04/23 01:33:16;;;;;;;17.95;10.52;;;;;;;;;;5110991;28;20019;-84
2022/04/23 01:35:42;;;;;;;17.00;11.40;;;;;;;;;;5111268;28;20039;-85
2022/04/23 01:38:08;;;;;;;20.05;10.98;;;;;;;;;;5110722;28;20035;-85
2022/04/23 01:40:33;;;;;;;17.80;11.32;;;;;;;;;;5111378;28;20019;-86
2022/04/23 01:42:58;;;;;;;15.70;10.57;;;;;;;;;;5112275;28;20016;-87
2022/04/23 01:45:24;;;;;;;16.52;10.70;;;;;;;;;;5111082;28;20262;-84
2022/04/23 01:47:49;;;;;;;17.23;10.15;;;;;;;;;;5111014;28;20080;-84
2022/04/23 01:50:14;;;;;;;16.67;10.50;;;;;;;;;;5112545;28;20012;-83
2022/04/23 01:52:40;;;;;;;19.47;10.97;;;;;;;;;;5111898;28;20240;-82
2022/04/23 01:55:05;;;;;;;16.52;11.25;;;;;;;;;;5108777;28;20295;-88
2022/04/23 01:57:31;;;;;;;15.90;10.63;;;;;;;;;;5102335;28;20024;-86
2022/04/23 01:59:56;;;;;;;19.50;10.95;;;;;;;;;;5104197;28;20038;-83
2022/04/23 02:02:22;;;;;;;17.30;11.27;;;;;;;;;;5102540;28;20012;-85
2022/04/23 02:04:47;;;;;;;18.23;11.48;;;;;;;;;;5102011;28;21017;-87
2022/04/23 02:07:12;;;;;;;17.08;10.48;;;;;;;;;;5101320;28;20083;-84
2022/04/23 02:09:38;;;;;;;17.25;11.88;;;;;;;;;;5102508;28;20039;-83
2022/04/23 02:12:03;;;;;;;19.00;11.90;;;;;;;;;;5098711;28;20473;-84
2022/04/23 02:14:28;;;;;;;18.35;12.40;;;;;;;;;;5102229;28;20032;-83
2022/04/23 02:16:54;;;;;;;20.58;12.00;;;;;;;;;;5104978;28;20023;-84
2022/04/23 02:19:19;;;;;;;20.73;13.10;;;;;;;;;;5095140;28;20550;-76
2022/04/23 02:21:44;;;;;;;19.50;11.95;;;;;;;;;;5090298;28;20769;-75
2022/04/23 02:24:10;;;;;;;20.00;12.15;;;;;;;;;;5091673;28;20019;-77
2022/04/23 02:26:35;;;;;;;16.65;11.18;;;;;;;;;;5091292;28;20098;-76
2022/04/23 02:29:00;;;;;;;18.85;11.85;;;;;;;;;;5090160;28;20467;-76
2022/04/23 02:31:26;;;;;;;22.55;12.32;;;;;;;;;;5091051;28;20016;-75
2022/04/23 02:33:51;;;;;;;16.77;12.25;;;;;;;;;;5092827;28;20142;-76
2022/04/23 02:36:16;;;;;;;18.33;11.53;;;;;;;;;;5090913;28;20016;-77
2022/04/23 02:38:41;;;;;;;17.40;11.75;;;;;;;;;;5091180;28;20305;-76
2022/04/23 02:41:10;;;;;;;17.40;11.32;;;;;;;;;;5091166;28;20069;-77
2022/04/23 02:43:35;;;;;;;17.48;11.35;;;;;;;;;;5090825;28;20054;-76
2022/04/23 02:46:12;;;;;;;17.75;10.50;;;;;;;;;;5091535;28;20465;-76
2022/04/23 02:48:37;;;;;;;17.00;11.35;;;;;;;;;;5090991;28;20023;-75
2022/04/23 02:51:02;;;;;;;17.47;10.80;;;;;;;;;;5091001;28;20012;-77
2022/04/23 02:53:28;;;;;;;19.52;12.18;;;;;;;;;;5089458;28;20319;-76
2022/04/23 02:55:56;;;;;;;19.45;11.68;;;;;;;;;;5090645;28;20020;-76
2022/04/23 02:58:24;;;;;;;21.55;11.90;;;;;;;;;;5090831;28;20123;-76
2022/04/23 03:00:49;;;;;;;18.92;12.10;;;;;;;;;;5090661;28;20020;-78
2022/04/23 03:03:14;;;;;;;17.27;11.25;;;;;;;;;;5090820;28;20069;-75
2022/04/23 03:05:42;;;;;;;15.65;10.48;;;;;;;;;;5090668;28;20026;-77
2022/04/23 03:08:07;;;;;;;18.27;11.50;;;;;;;;;;5091335;28;20029;-77
2022/04/23 03:10:32;;;;;;;16.65;11.55;;;;;;;;;;5092140;28;20024;-79
2022/04/23 03:12:57;;;;;;;20.73;11.05;;;;;;;;;;5097075;28;20012;-75
2022/04/23 03:15:24;;;;;;;19.52;12.02;;;;;;;;;;5094109;28;20111;-75
2022/04/23 03:17:50;;;;;;;18.02;11.15;;;;;;;;;;5091393;28;20056;-76
2022/04/23 03:20:15;;;;;;;19.27;11.60;;;;;;;;;;5090651;28;20051;-76
2022/04/23 03:22:41;;;;;;;20.13;11.33;;;;;;;;;;5090672;28;20024;-76
2022/04/23 03:25:06;;;;;;;21.50;12.38;;;;;;;;;;5090574;28;20267;-76
2022/04/23 03:27:32;;;;;;;19.52;12.63;;;;;;;;;;5090195;28;20024;-75
2022/04/23 03:29:58;;;;;;;20.10;12.50;;;;;;;;;;5089818;28;20052;-75
2022/04/23 03:32:24;;;;;;;20.15;12.63;;;;;;;;;;5090797;28;20115;-76
2022/04/23 03:34:49;;;;;;;21.35;12.57;;;;;;;;;;5104906;28;20149;-76
2022/04/23 03:37:14;;;;;;;19.73;12.15;;;;;;;;;;5092839;28;20393;-76
2022/04/23 03:39:39;;;;;;;18.40;11.47;;;;;;;;;;5108354;28;20024;-75
2022/04/23 03:42:05;;;;;;;19.70;12.33;;;;;;;;;;5114759;28;20267;-76
2022/04/23 03:44:31;;;;;;;17.42;11.65;;;;;;;;;;5114452;28;20260;-76
2022/04/23 03:46:57;;;;;;;16.35;10.88;;;;;;;;;;5115374;28;20414;-75
2022/04/23 03:49:23;;;;;;;17.38;11.88;;;;;;;;;;5114575;28;20019;-78
2022/04/23 03:51:48;;;;;;;16.13;10.40;;;;;;;;;;5100668;28;20031;-76
2022/04/23 03:54:14;;;;;;;20.15;11.00;;;;;;;;;;5095790;28;20544;-75
2022/04/23 03:56:40;;;;;;;15.95;10.35;;;;;;;;;;5095980;28;20354;-76
2022/04/23 03:59:07;;;;;;;17.88;10.90;;;;;;;;;;5096043;28;20020;-76
2022/04/23 04:01:32;;;;;;;20.00;11.73;;;;;;;;;;5095030;28;20036;-76
2022/04/23 04:03:57;;;;;;;18.67;11.85;;;;;;;;;;5094650;28;20042;-77
2022/04/23 04:06:23;;;;;;;17.10;11.03;;;;;;;;;;5094895;28;20096;-74
2022/04/23 04:08:50;;;;;;;25.80;12.35;;;;;;;;;;5094223;28;20264;-76
2022/04/23 04:11:15;;;;;;;22.48;12.25;;;;;;;;;;5094258;28;20027;-76
2022/04/23 04:13:41;;;;;;;21.42;13.23;;;;;;;;;;5094045;28;20036;-77
2022/04/23 04:16:06;;;;;;;23.25;13.73;;;;;;;;;;5094222;28;20036;-76
2022/04/23 04:18:32;;;;;;;21.65;12.55;;;;;;;;;;5093632;28;20024;-76
2022/04/23 04:20:58;;;;;;;24.10;13.80;;;;;;;;;;5093312;28;20045;-78
2022/04/23 04:23:26;;;;;;;27.63;13.95;;;;;;;;;;5093028;28;20023;-76
2022/04/23 04:25:51;;;;;;;23.40;13.93;;;;;;;;;;5093381;28;20016;-75
2022/04/23 04:28:17;;;;;;;29.27;14.80;;;;;;;;;;5092892;28;20063;-75
2022/04/23 04:33:25;;;;;;;27.48;15.00;;;;;;;;;;5093405;28;21557;-76
2022/04/23 04:35:51;;;;;;;30.10;14.63;;;;;;;;;;5094195;28;20016;-84
2022/04/23 04:38:16;;;;;;;27.05;14.45;;;;;;;;;;5091650;28;20260;-76
2022/04/23 04:40:41;;;;;;;24.20;13.77;;;;;;;;;;5101463;28;20031;-75
2022/04/23 04:43:07;;;;;;;23.67;13.88;;;;;;;;;;5093607;28;20024;-77
2022/04/23 04:45:32;;;;;;;27.77;14.48;;;;;;;;;;5091972;28;20038;-81
2022/04/23 04:47:57;;;;;;;23.83;13.65;;;;;;;;;;5093618;28;20444;-79
2022/04/23 04:50:23;;;;;;;22.02;13.50;;;;;;;;;;5092992;28;20440;-77
2022/04/23 04:52:49;;;;;;;23.95;13.48;;;;;;;;;;5092958;28;20047;-79
2022/04/23 04:55:14;;;;;;;27.50;14.15;;;;;;;;;;5093792;28;20032;-77
2022/04/23 04:57:39;;;;;;;19.52;12.13;;;;;;;;;;5094232;28;20035;-75
2022/04/23 05:00:05;;;;;;;23.38;12.60;;;;;;;;;;5093255;28;20039;-77
2022/04/23 05:02:30;;;;;;;20.45;11.93;;;;;;;;;;5091451;28;20529;-77
2022/04/23 05:04:56;;;;;;;21.93;11.10;;;;;;;;;;5092791;28;20039;-77
2022/04/23 05:07:21;;;;;;;17.67;11.40;;;;;;;;;;5093284;28;20257;-80
2022/04/23 05:09:46;;;;;;;29.85;11.77;;;;;;;;;;5092854;28;20024;-79
2022/04/23 05:12:12;;;;;;;21.45;11.88;;;;;;;;;;5092510;28;20024;-76
2022/04/23 05:14:37;;;;;;;19.35;10.80;;;;;;;;;;5092717;28;20496;-76
2022/04/23 05:17:02;;;;;;;19.67;10.65;;;;;;;;;;5091497;28;20028;-75
2022/04/23 05:19:27;;;;;;;19.80;11.68;;;;;;;;;;5093708;28;20798;-75
2022/04/23 05:21:53;;;;;;;22.65;13.00;;;;;;;;;;5109781;28;20383;-80
2022/04/23 05:24:18;;;;;;;20.50;11.20;;;;;;;;;;5116169;28;20123;-78
2022/04/23 05:26:43;;;;;;;19.90;11.00;;;;;;;;;;5112409;28;20313;-76
2022/04/23 05:29:08;;;;;;;20.00;11.48;;;;;;;;;;5101823;28;20043;-79
2022/04/23 05:31:38;;;;;;;21.02;11.82;;;;;;;;;;5097424;28;20020;-76
2022/04/23 05:34:04;;;;;;;21.35;12.30;;;;;;;;;;5092792;28;20044;-79
2022/04/23 05:36:29;;;;;;;19.92;11.68;;;;;;;;;;5107166;28;20491;-76
2022/04/23 05:38:55;;;;;;;20.00;11.93;;;;;;;;;;5090692;28;20024;-76
2022/04/23 05:41:20;;;;;;;21.05;12.25;;;;;;;;;;5090937;28;20249;-75
2022/04/23 05:43:45;;;;;;;19.27;11.68;;;;;;;;;;5091874;28;20045;-77
2022/04/23 05:46:10;;;;;;;19.88;11.82;;;;;;;;;;5090279;28;20463;-75
2022/04/23 05:48:37;;;;;;;20.35;12.15;;;;;;;;;;5091699;28;20084;-77
2022/04/23 05:51:02;;;;;;;21.00;12.52;;;;;;;;;;5093400;28;20101;-80
2022/04/23 05:53:27;;;;;;;21.15;11.60;;;;;;;;;;5100161;28;20097;-75
2022/04/23 05:55:56;;;;;;;19.98;10.52;;;;;;;;;;5092926;28;20030;-76
2022/04/23 05:58:21;;;;;;;16.33;10.52;;;;;;;;;;5107542;28;20028;-76
2022/04/23 06:00:47;;;;;;;18.00;10.52;;;;;;;;;;5093805;28;20022;-76
2022/04/23 06:03:12;;;;;;;17.90;10.35;;;;;;;;;;5096650;28;20050;-76
2022/04/23 06:05:39;;;;;;;18.25;11.20;;;;;;;;;;5103375;28;20015;-76
2022/04/23 06:08:05;;;;;;;20.27;11.38;;;;;;;;;;5096508;28;20023;-76
2022/04/23 06:10:30;;;;;;;17.55;10.75;;;;;;;;;;5098677;28;20115;-76
2022/04/23 06:12:55;;;;;;;17.77;10.38;;;;;;;;;;5107689;28;20098;-75
2022/04/23 06:15:20;;;;;;;18.60;10.90;;;;;;;;;;5101305;28;20047;-75
2022/04/23 06:17:46;;;;;;;22.10;11.77;;;;;;;;;;5097981;28;20024;-76
2022/04/23 06:20:12;;;;;;;21.35;10.82;;;;;;;;;;5109531;28;20260;-74
2022/04/23 06:22:37;;;;;;;21.17;10.95;;;;;;;;;;5104213;28;20075;-75
2022/04/23 06:25:02;;;;;;;16.90;9.85;;;;;;;;;;5088534;28;20024;-75
2022/04/23 06:27:30;;;;;;;19.73;11.00;;;;;;;;;;5088464;28;20032;-77
2022/04/23 06:29:55;;;;;;;20.55;11.05;;;;;;;;;;5090125;28;20047;-78
2022/04/23 06:32:21;;;;;;;19.23;11.10;;;;;;;;;;5090817;28;20028;-75
2022/04/23 06:34:46;;;;;;;19.15;11.52;;;;;;;;;;5090834;28;20488;-74
2022/04/23 06:37:11;;;;;;;20.73;10.57;;;;;;;;;;5090936;28;20052;-77
2022/04/23 06:39:37;;;;;;;17.13;9.95;;;;;;;;;;5090740;28;20031;-77
2022/04/23 06:42:02;;;;;;;18.00;10.20;;;;;;;;;;5093524;28;20054;-78
2022/04/23 06:44:27;;;;;;;15.70;9.35;;;;;;;;;;5091095;28;20150;-77
2022/04/23 06:46:53;;;;;;;15.35;9.18;;;;;;;;;;5091038;28;20554;-77
2022/04/23 06:49:18;;;;;;;15.13;9.13;;;;;;;;;;5090608;28;20036;-75
2022/04/23 06:51:43;;;;;;;19.95;9.23;;;;;;;;;;5090792;28;20016;-74
2022/04/23 06:54:09;;;;;;;14.18;9.38;;;;;;;;;;5089512;28;20039;-79
2022/04/23 06:56:34;;;;;;;16.63;9.50;;;;;;;;;;5091017;28;20366;-75
2022/04/23 06:58:59;;;;;;;17.15;9.27;;;;;;;;;;5091134;28;20020;-75
2022/04/23 07:01:25;;;;;;;12.98;8.98;;;;;;;;;;5091427;28;20024;-75
2022/04/23 07:03:50;;;;;;;14.50;8.70;;;;;;;;;;5092165;28;20035;-82
2022/04/23 07:06:21;;;;;;;19.25;9.38;;;;;;;;;;5093872;28;20077;-76
2022/04/23 07:08:46;;;;;;;14.60;9.48;;;;;;;;;;5096928;28;20012;-78
2022/04/23 07:11:12;;;;;;;15.52;8.82;;;;;;;;;;5100614;28;20076;-80
2022/04/23 07:13:38;;;;;;;12.35;8.10;;;;;;;;;;5097613;28;20509;-76
2022/04/23 07:16:03;;;;;;;15.15;9.00;;;;;;;;;;5099475;28;20135;-77
2022/04/23 07:18:29;;;;;;;12.90;7.57;;;;;;;;;;5102763;28;20414;-76
2022/04/23 07:20:55;;;;;;;12.75;7.82;;;;;;;;;;5102286;28;20028;-74
2022/04/23 07:26:07;;;;;;;13.27;7.65;;;;;;;;;;5099542;28;20514;-82
2022/04/23 07:28:33;;;;;;;11.85;8.32;;;;;;;;;;5106020;28;20136;-74
2022/04/23 07:30:58;;;;;;;41.35;22.88;;;;;;;;;;5103234;28;20103;-75
2022/04/23 07:38:52;;;;;;;12.07;8.13;;;;;;;;;;5100393;28;20030;-74
2022/04/23 07:41:18;;;;;;;14.88;8.80;;;;;;;;;;5095945;28;20012;-76
2022/04/23 07:43:44;;;;;;;12.35;8.48;;;;;;;;;;5103019;28;20122;-76
2022/04/23 07:46:09;;;;;;;13.38;7.90;;;;;;;;;;5104667;28;20107;-75
2022/04/23 07:48:34;;;;;;;15.47;9.30;;;;;;;;;;5109835;28;20022;-77
2022/04/23 07:50:59;;;;;;;13.27;7.63;;;;;;;;;;5104440;28;20272;-76
2022/04/23 07:53:25;;;;;;;11.35;7.15;;;;;;;;;;5091847;28;20388;-75
2022/04/23 07:55:50;;;;;;;13.20;7.30;;;;;;;;;;5106478;28;20036;-75
2022/04/23 07:58:15;;;;;;;9.18;6.72;;;;;;;;;;5113452;28;20023;-76
2022/04/23 08:00:43;;;;;;;10.88;6.70;;;;;;;;;;5113104;27;20018;-75
2022/04/23 08:03:09;;;;;;;10.40;7.20;;;;;;;;;;5113251;28;20028;-75
2022/04/23 08:05:34;;;;;;;10.45;6.68;;;;;;;;;;5113324;28;20016;-75
2022/04/23 08:07:59;;;;;;;12.45;6.53;;;;;;;;;;5103503;28;20381;-75
2022/04/23 08:10:25;;;;;;;14.43;7.35;;;;;;;;;;5101270;28;20027;-74
2022/04/23 08:12:50;;;;;;;10.10;6.70;;;;;;;;;;5101472;28;20020;-75
2022/04/23 08:15:16;;;;;;;9.35;5.70;;;;;;;;;;5092682;28;20028;-76
2022/04/23 08:17:41;;;;;;;9.55;5.97;;;;;;;;;;5092901;28;20048;-76
2022/04/23 08:20:08;;;;;;;8.90;5.80;;;;;;;;;;5104581;28;20023;-79
2022/04/23 08:22:33;;;;;;;7.85;5.57;;;;;;;;;;5106932;28;20461;-78
2022/04/23 08:24:58;;;;;;;6.25;4.85;;;;;;;;;;5103947;28;20145;-79
2022/04/23 08:27:23;;;;;;;7.97;5.43;;;;;;;;;;5107965;28;20567;-78
2022/04/23 08:32:36;;;;;;;6.75;4.72;;;;;;;;;;5113497;28;20255;-77
2022/04/23 08:35:01;;;;;;;6.78;4.53;;;;;;;;;;5117223;28;20036;-75
2022/04/23 08:37:27;;;;;;;6.60;4.70;;;;;;;;;;5114608;28;20035;-76
2022/04/23 08:39:52;;;;;;;7.05;4.78;;;;;;;;;;5113961;28;20131;-74
2022/04/23 08:42:18;;;;;;;5.93;4.45;;;;;;;;;;5111464;28;20023;-75
2022/04/23 08:44:43;;;;;;;5.88;3.65;;;;;;;;;;5104500;28;20015;-74
2022/04/23 08:47:11;;;;;;;7.53;4.90;;;;;;;;;;5102101;28;20022;-79
2022/04/23 08:49:39;;;;;;;6.03;3.67;;;;;;;;;;5093530;28;20458;-74
2022/04/23 08:52:18;;;;;;;7.10;3.92;;;;;;;;;;5091504;28;20062;-74
2022/04/23 08:54:44;;;;;;;6.40;4.30;;;;;;;;;;5092005;28;20120;-72
2022/04/23 08:57:09;;;;;;;7.05;4.05;;;;;;;;;;5092688;28;20024;-74
2022/04/23 08:59:34;;;;;;;6.70;4.40;;;;;;;;;;5092212;28;20016;-77
2022/04/23 09:02:00;;;;;;;7.05;3.97;;;;;;;;;;5094101;28;20041;-76
2022/04/23 09:04:26;;;;;;;6.32;3.47;;;;;;;;;;5100745;28;20095;-73
2022/04/23 09:06:51;;;;;;;5.20;3.35;;;;;;;;;;5106013;28;20033;-78
2022/04/23 09:09:20;;;;;;;7.07;4.60;;;;;;;;;;5109424;28;20024;-81
2022/04/23 09:11:56;;;;;;;6.82;3.47;;;;;;;;;;5105750;27;20028;-73
2022/04/23 09:14:25;;;;;;;4.82;3.38;;;;;;;;;;5107256;28;20071;-76
2022/04/23 09:25:10;;;;;;;4.63;3.15;;;;;;;;;;5094590;28;20077;-73
2022/04/23 09:27:40;;;;;;;6.32;3.17;;;;;;;;;;5102081;28;20043;-75
2022/04/23 09:30:09;;;;;;;5.82;3.45;;;;;;;;;;5102004;28;20034;-76
2022/04/23 09:32:35;;;;;;;5.30;3.35;;;;;;;;;;5097846;28;20429;-74
2022/04/23 09:35:04;;;;;;;4.63;3.00;;;;;;;;;;5100185;28;20055;-75
2022/04/23 09:40:16;;;;;;;4.20;3.13;;;;;;;;;;5093178;28;20530;-73
2022/04/23 09:42:53;;;;;;;4.15;2.88;;;;;;;;;;5094952;28;20050;-74
2022/04/23 09:45:18;;;;;;;3.72;2.63;;;;;;;;;;5112856;28;20030;-76
2022/04/23 09:47:45;;;;;;;4.15;2.78;;;;;;;;;;5102380;28;20102;-74
2022/04/23 09:50:13;;;;;;;5.53;3.05;;;;;;;;;;5102868;28;20040;-80
2022/04/23 09:52:39;;;;;;;3.78;2.58;;;;;;;;;;5100729;28;20071;-81
2022/04/23 09:55:07;;;;;;;4.68;2.63;;;;;;;;;;5099587;28;20419;-78
2022/04/23 09:57:32;;;;;;;3.72;2.45;;;;;;;;;;5095026;28;20374;-73
2022/04/23 09:59:57;;;;;;;3.40;2.17;;;;;;;;;;5091864;28;20028;-75
2022/04/23 10:02:23;;;;;;;3.10;2.10;;;;;;;;;;5091488;28;20612;-74
2022/04/23 10:04:49;;;;;;;4.13;2.30;;;;;;;;;;5093076;28;20260;-74
2022/04/23 10:07:17;;;;;;;2.83;1.92;;;;;;;;;;5092054;28;20130;-74
2022/04/23 10:09:44;;;;;;;3.53;2.25;;;;;;;;;;5091812;28;20028;-75
2022/04/23 10:12:13;;;;;;;2.42;1.65;;;;;;;;;;5090254;28;20032;-75
2022/04/23 10:14:42;;;;;;;3.40;1.92;;;;;;;;;;5092448;28;20047;-75
2022/04/23 10:17:09;;;;;;;2.75;1.90;;;;;;;;;;5093006;28;20038;-73
2022/04/23 10:19:35;;;;;;;3.53;1.90;;;;;;;;;;5092783;28;20028;-74
2022/04/23 10:22:03;;;;;;;2.38;1.73;;;;;;;;;;5091848;28;20496;-72
2022/04/23 10:24:37;;;;;;;2.85;1.95;;;;;;;;;;5089578;28;20058;-71
2022/04/23 10:27:10;;;;;;;3.88;1.98;;;;;;;;;;5097738;28;20012;-73
2022/04/23 10:29:36;;;;;;;2.33;1.80;;;;;;;;;;5110076;28;20055;-72
2022/04/23 10:32:10;;;;;;;2.55;1.67;;;;;;;;;;5106442;28;20476;-72
2022/04/23 10:34:36;;;;;;;3.25;2.08;;;;;;;;;;5109420;28;20027;-73
2022/04/23 10:37:20;;;;;;;5.05;2.85;;;;;;;;;;5112680;28;20444;-80
2022/04/23 10:39:49;;;;;;;2.45;1.70;;;;;;;;;;5112001;28;20024;-76
2022/04/23 10:42:14;;;;;;;2.70;1.50;;;;;;;;;;5093997;28;20016;-77
2022/04/23 10:44:40;;;;;;;2.50;1.60;;;;;;;;;;5090205;28;20028;-75
2022/04/23 10:47:12;;;;;;;2.88;2.00;;;;;;;;;;5091172;28;20376;-77
2022/04/23 10:49:38;;;;;;;2.75;1.80;;;;;;;;;;5094458;28;20019;-77
2022/04/23 10:52:03;;;;;;;4.28;1.70;;;;;;;;;;5110305;28;20023;-75
2022/04/23 10:54:41;;;;;;;2.60;1.65;;;;;;;;;;5110361;28;20156;-78
2022/04/23 10:57:10;;;;;;;2.78;1.70;;;;;;;;;;5109857;28;20015;-74
2022/04/23 10:59:38;;;;;;;2.47;1.65;;;;;;;;;;5087101;28;20048;-75
2022/04/23 11:02:06;;;;;;;3.38;1.80;;;;;;;;;;5098491;28;20028;-74
2022/04/23 11:04:32;;;;;;;2.17;1.55;;;;;;;;;;5104843;28;20484;-75
2022/04/23 11:12:36;;;;;;;1.58;1.40;;;;;;;;;;5089826;28;20039;-74
2022/04/23 11:15:02;;;;;;;2.22;1.40;;;;;;;;;;5089313;28;20043;-73
2022/04/23 11:17:33;;;;;;;3.47;1.50;;;;;;;;;;5091713;28;20012;-75
2022/04/23 11:19:59;;;;;;;2.30;1.58;;;;;;;;;;5093262;28;20099;-77
2022/04/23 11:22:25;;;;;;;2.63;1.52;;;;;;;;;;5094436;28;20053;-75
2022/04/23 11:24:54;;;;;;;2.88;1.67;;;;;;;;;;5094457;28;20488;-76
2022/04/23 11:27:29;;;;;;;3.25;1.73;;;;;;;;;;5098474;28;20372;-77
2022/04/23 11:29:55;;;;;;;1.70;1.30;;;;;;;;;;5090028;28;20039;-73
2022/04/23 11:32:24;;;;;;;1.95;1.50;;;;;;;;;;5100691;28;20016;-74
2022/04/23 11:34:59;;;;;;;2.38;1.58;;;;;;;;;;5089374;28;20028;-75
2022/04/23 11:37:28;;;;;;;2.50;1.67;;;;;;;;;;5098426;28;20051;-74
2022/04/23 11:40:02;;;;;;;1.92;1.60;;;;;;;;;;5088890;28;20026;-75
2022/04/23 11:42:36;;;;;;;2.95;1.75;;;;;;;;;;5105981;28;20020;-75
2022/04/23 11:45:02;;;;;;;2.45;1.50;;;;;;;;;;5094840;28;20028;-74
2022/04/23 11:47:28;;;;;;;4.22;2.03;;;;;;;;;;5105157;28;20051;-75
2022/04/23 11:49:53;;;;;;;2.38;1.50;;;;;;;;;;5096175;28;20107;-76
2022/04/23 11:52:19;;;;;;;2.38;1.58;;;;;;;;;;5102751;28;20084;-75
2022/04/23 11:54:45;;;;;;;2.38;1.70;;;;;;;;;;5108565;28;20550;-78
2022/04/23 11:57:10;;;;;;;3.08;1.60;;;;;;;;;;5106276;28;20019;-76
2022/04/23 11:59:39;;;;;;;2.17;1.60;;;;;;;;;;5114298;28;20015;-73
2022/04/23 12:02:24;;;;;;;1.58;1.40;;;;;;;;;;5113986;28;20122;-73
2022/04/23 12:04:50;;;;;;;2.88;2.15;;;;;;;;;;5106890;28;20110;-74
2022/04/23 12:07:16;;;;;;;4.35;1.75;;;;;;;;;;5105322;28;20028;-75
2022/04/23 12:09:45;;;;;;;2.88;1.90;;;;;;;;;;5100597;28;20020;-74
2022/04/23 12:12:14;;;;;;;2.42;1.83;;;;;;;;;;5102650;28;20032;-74
2022/04/23 12:14:44;;;;;;;1.85;1.60;;;;;;;;;;5092425;28;20036;-73
2022/04/23 12:17:09;;;;;;;1.95;1.67;;;;;;;;;;5096906;28;20484;-74
2022/04/23 12:19:34;;;;;;;2.60;1.88;;;;;;;;;;5097462;28;20110;-73
2022/04/23 12:21:59;;;;;;;2.93;1.97;;;;;;;;;;5093674;28;20032;-74
2022/04/23 12:24:34;;;;;;;6.55;2.13;;;;;;;;;;5107819;28;20349;-73
2022/04/23 12:27:00;;;;;;;2.38;2.00;;;;;;;;;;5111474;28;20027;-74
2022/04/23 12:40:44;;;;;;;2.92;1.70;;;;;;;;;;5101096;28;20497;-74
2022/04/23 12:43:24;;;;;;;2.30;1.70;;;;;;;;;;5102486;28;20041;-74
2022/04/23 12:45:50;;;;;;;3.10;1.83;;;;;;;;;;5097414;28;20028;-74
2022/04/23 12:48:16;;;;;;;3.03;1.80;;;;;;;;;;5100365;28;20034;-75
2022/04/23 12:50:44;;;;;;;2.13;1.70;;;;;;;;;;5105423;27;20034;-76
2022/04/23 12:53:10;;;;;;;2.08;1.65;;;;;;;;;;5101770;28;20019;-80
2022/04/23 12:55:37;;;;;;;2.42;1.83;;;;;;;;;;5098651;28;20433;-75
2022/04/23 12:58:06;;;;;;;2.45;1.90;;;;;;;;;;5096691;28;20020;-74
2022/04/23 13:00:35;;;;;;;3.20;1.95;;;;;;;;;;5093226;28;20504;-75
2022/04/23 13:03:11;;;;;;;3.00;1.90;;;;;;;;;;5104202;28;20020;-73
2022/04/23 13:05:38;;;;;;;2.60;1.75;;;;;;;;;;5100506;28;20491;-73
2022/04/23 13:10:46;;;;;;;2.67;2.00;;;;;;;;;;5106789;28;20120;-75
2022/04/23 13:13:12;;;;;;;2.97;2.13;;;;;;;;;;5113909;28;20031;-75
2022/04/23 13:15:39;;;;;;;2.97;2.05;;;;;;;;;;5107888;28;20031;-73
2022/04/23 13:18:04;;;;;;;8.85;2.22;;;;;;;;;;5097325;28;20024;-74
2022/04/23 13:20:30;;;;;;;2.92;1.88;;;;;;;;;;5099547;28;20080;-77
2022/04/23 13:22:55;;;;;;;3.53;2.20;;;;;;;;;;5100883;28;20031;-75
2022/04/23 13:25:21;;;;;;;2.13;1.73;;;;;;;;;;5107920;28;20020;-77
2022/04/23 13:27:46;;;;;;;3.25;2.20;;;;;;;;;;5106337;28;20039;-73
2022/04/23 13:30:12;;;;;;;2.03;1.63;;;;;;;;;;5106534;28;20023;-74
2022/04/23 13:32:39;;;;;;;2.30;1.75;;;;;;;;;;5112379;28;20027;-76
2022/04/23 13:35:10;;;;;;;3.33;1.98;;;;;;;;;;5099647;28;20040;-75
2022/04/23 13:37:35;;;;;;;2.90;2.00;;;;;;;;;;5108912;28;20027;-73
2022/04/23 13:40:00;;;;;;;3.33;1.95;;;;;;;;;;5112945;28;20019;-75
2022/04/23 13:42:26;;;;;;;2.53;1.70;;;;;;;;;;5106230;28;20372;-75
2022/04/23 13:44:52;;;;;;;2.20;1.52;;;;;;;;;;5094760;28;20277;-74
2022/04/23 13:47:17;;;;;;;3.10;1.98;;;;;;;;;;5092141;28;20004;-75
2022/04/23 13:49:43;;;;;;;3.08;1.85;;;;;;;;;;5092112;28;20024;-73
2022/04/23 13:52:08;;;;;;;2.78;2.10;;;;;;;;;;5088664;28;21531;-75
2022/04/23 13:54:33;;;;;;;2.97;2.00;;;;;;;;;;5092789;28;20036;-73
2022/04/23 13:57:00;;;;;;;2.58;1.67;;;;;;;;;;5104920;28;20026;-84
2022/04/23 13:59:26;;;;;;;4.15;1.77;;;;;;;;;;5095162;28;20004;-75
2022/04/23 14:10:07;;;;;;;3.15;2.03;;;;;;;;;;5105760;28;20050;-74
2022/04/23 14:12:32;;;;;;;2.47;1.77;;;;;;;;;;5096970;28;20105;-73
2022/04/23 14:14:57;;;;;;;3.03;2.05;;;;;;;;;;5104391;28;20085;-71
2022/04/23 14:17:23;;;;;;;3.50;2.10;;;;;;;;;;5096495;28;20526;-77
2022/04/23 14:19:48;;;;;;;3.80;2.22;;;;;;;;;;5096331;28;20961;-75
2022/04/23 14:22:13;;;;;;;2.90;2.15;;;;;;;;;;5110142;28;20513;-73
2022/04/23 14:24:39;;;;;;;3.25;2.10;;;;;;;;;;5091541;28;20465;-70
2022/04/23 14:27:04;;;;;;;2.43;1.80;;;;;;;;;;5091045;28;20024;-72
2022/04/23 14:29:30;;;;;;;3.22;2.00;;;;;;;;;;5090353;28;20303;-73
2022/04/23 14:31:55;;;;;;;2.95;2.00;;;;;;;;;;5098726;28;20387;-74
2022/04/23 14:34:21;;;;;;;2.97;2.00;;;;;;;;;;5110934;28;20039;-71
2022/04/23 14:36:46;;;;;;;3.25;2.20;;;;;;;;;;5104507;28;20271;-71
2022/04/23 14:39:11;;;;;;;4.90;2.30;;;;;;;;;;5097558;28;20031;-71
2022/04/23 14:41:36;;;;;;;3.17;2.25;;;;;;;;;;5106499;28;20032;-72
2022/04/23 14:44:02;;;;;;;3.63;2.50;;;;;;;;;;5096310;28;20020;-73
2022/04/23 14:46:28;;;;;;;4.78;2.40;;;;;;;;;;5090694;28;20359;-72
2022/04/23 14:48:53;;;;;;;3.08;2.20;;;;;;;;;;5105175;28;20385;-72
2022/04/23 14:54:02;;;;;;;3.90;1.90;;;;;;;;;;5103765;28;20123;-71
2022/04/23 14:56:28;;;;;;;5.05;2.28;;;;;;;;;;5106359;28;20036;-71
2022/04/23 14:58:54;;;;;;;3.40;2.10;;;;;;;;;;5090451;28;20118;-70
2022/04/23 15:01:20;;;;;;;3.47;2.10;;;;;;;;;;5089599;28;20103;-72
2022/04/23 15:03:45;;;;;;;2.50;2.00;;;;;;;;;;5090873;28;20149;-74
2022/04/23 15:06:11;;;;;;;3.17;2.08;;;;;;;;;;5091062;28;20114;-74
2022/04/23 15:08:36;;;;;;;3.13;2.10;;;;;;;;;;5103436;28;20445;-75
2022/04/23 15:11:02;;;;;;;3.20;2.30;;;;;;;;;;5101726;28;20032;-73
2022/04/23 15:13:28;;;;;;;19.58;9.27;;;;;;;;;;5108186;28;20265;-81
2022/04/23 15:15:53;;;;;;;17.70;9.38;;;;;;;;;;5103011;28;20389;-74
2022/04/23 15:18:18;;;;;;;6.43;3.60;;;;;;;;;;5100207;28;20012;-79
2022/04/23 15:20:44;;;;;;;4.18;2.83;;;;;;;;;;5096233;28;20157;-78